| time (UTC) | temp F | wind direction | speed MPH | gust MPH | rain 1hr in | rain 24hr in | rain mn in | humidity % | barometer mb |
| 20260509003658 | 49 | 0 | 0.0 | 0.0 | 0.00 | 0.24 | 0.00 | 75 | 914.1 |
| 20260509000658 | 49 | 128 | 2.0 | 0.0 | 0.00 | 0.24 | 0.00 | 76 | 914.3 |
| 20260508233658 | 49 | 145 | 3.0 | 0.0 | 0.00 | 0.24 | 0.00 | 74 | 914.2 |
| 20260508230658 | 50 | 0 | 0.0 | 0.0 | 0.00 | 0.24 | 0.00 | 73 | 914.2 |
| 20260508223658 | 51 | 0 | 0.0 | 0.0 | 0.00 | 0.24 | 0.00 | 72 | 914.3 |
| 20260508220658 | 51 | 0 | 0.0 | 0.0 | 0.00 | 0.24 | 0.00 | 71 | 914.3 |
| 20260508213658 | 52 | 0 | 0.0 | 0.0 | 0.00 | 0.24 | 0.00 | 69 | 914.3 |
| 20260508210658 | 53 | 0 | 0.0 | 0.0 | 0.00 | 0.24 | 0.00 | 67 | 914.0 |
| 20260508203658 | 54 | 0 | 0.0 | 0.0 | 0.00 | 0.24 | 0.00 | 66 | 913.9 |
| 20260508200658 | 56 | 0 | 0.0 | 0.0 | 0.00 | 0.24 | 0.00 | 63 | 913.8 |
| 20260508193658 | 57 | 272 | 2.0 | 0.0 | 0.00 | 0.24 | 0.00 | 60 | 913.5 |
| 20260508190658 | 59 | 0 | 0.0 | 0.0 | 0.00 | 0.24 | 0.00 | 58 | 913.2 |
| 20260508183658 | 61 | 0 | 0.0 | 0.0 | 0.00 | 0.24 | 0.00 | 54 | 912.7 |
| 20260508180658 | 63 | 0 | 0.0 | 0.0 | 0.00 | 0.24 | 0.00 | 50 | 912.4 |
| 20260508173658 | 65 | 200 | 4.0 | 0.0 | 0.00 | 0.24 | 0.00 | 45 | 912.2 |
| 20260508170658 | 67 | 282 | 5.0 | 0.0 | 0.00 | 0.24 | 0.00 | 43 | 912.0 |
| 20260508163658 | 68 | 183 | 4.0 | 0.0 | 0.00 | 0.24 | 0.00 | 41 | 911.8 |
| 20260508160658 | 68 | 169 | 8.0 | 0.0 | 0.00 | 0.24 | 0.00 | 41 | 911.8 |
| 20260508153658 | 70 | 155 | 4.0 | 0.0 | 0.00 | 0.24 | 0.00 | 39 | 911.7 |
| 20260508150658 | 70 | 266 | 8.0 | 0.0 | 0.00 | 0.24 | 0.00 | 39 | 911.8 |
| 20260508143658 | 70 | 187 | 4.0 | 0.0 | 0.00 | 0.24 | 0.00 | 39 | 911.8 |
| 20260508140703 | 69 | 186 | 14.0 | 0.0 | 0.00 | 0.24 | 0.00 | 39 | 911.8 |
| 20260508140658 | 69 | 186 | 14.0 | 0.0 | 0.00 | 0.24 | 0.00 | 39 | 911.8 |
| 20260508133658 | 70 | 271 | 9.0 | 0.0 | 0.00 | 0.24 | 0.00 | 37 | 912.0 |
| 20260508130658 | 69 | 286 | 13.0 | 0.0 | 0.00 | 0.24 | 0.00 | 38 | 912.0 |
| 20260508123658 | 69 | 295 | 8.0 | 0.0 | 0.00 | 0.24 | 0.00 | 40 | 912.2 |
| 20260508120658 | 69 | 266 | 5.0 | 0.0 | 0.00 | 0.24 | 0.00 | 39 | 912.1 |
| 20260508115058 | 69 | 220 | 5.0 | 0.0 | 0.00 | 0.24 | 0.00 | 41 | 912.0 |
| 20260508113458 | 69 | 319 | 4.0 | 0.0 | 0.00 | 0.24 | 0.00 | 41 | 912.0 |
| 20260508111858 | 69 | 289 | 7.0 | 0.0 | 0.00 | 0.24 | 0.00 | 40 | 912.1 |
| 20260508110258 | 69 | 295 | 9.0 | 0.0 | 0.00 | 0.24 | 0.00 | 44 | 912.2 |
| 20260508105458 | 68 | 265 | 6.0 | 0.0 | 0.00 | 0.24 | 0.00 | 45 | 912.2 |
| 20260508104658 | 68 | 282 | 4.0 | 0.0 | 0.00 | 0.24 | 0.00 | 47 | 912.3 |
| 20260508103858 | 68 | 146 | 5.0 | 0.0 | 0.00 | 0.24 | 0.00 | 47 | 912.4 |
| 20260508103058 | 67 | 139 | 5.0 | 0.0 | 0.00 | 0.24 | 0.00 | 48 | 912.4 |
| 20260508102658 | 66 | 131 | 6.0 | 0.0 | 0.00 | 0.24 | 0.00 | 48 | 912.4 |
| 20260508102258 | 66 | 104 | 6.0 | 0.0 | 0.00 | 0.24 | 0.00 | 48 | 912.4 |
| 20260508101858 | 65 | 183 | 5.0 | 0.0 | 0.00 | 0.24 | 0.00 | 49 | 912.5 |
| 20260508101458 | 65 | 183 | 5.0 | 0.0 | 0.00 | 0.24 | 0.00 | 49 | 912.5 |
| 20260508101258 | 65 | 182 | 6.0 | 0.0 | 0.00 | 0.24 | 0.00 | 50 | 912.5 |
| 20260508101058 | 65 | 182 | 6.0 | 0.0 | 0.00 | 0.24 | 0.00 | 50 | 912.5 |
| 20260508100858 | 64 | 190 | 6.0 | 0.0 | 0.00 | 0.24 | 0.00 | 51 | 912.5 |
| 20260508100658 | 64 | 190 | 6.0 | 0.0 | 0.00 | 0.24 | 0.00 | 51 | 912.5 |
| 20260508100458 | 64 | 190 | 6.0 | 0.0 | 0.00 | 0.24 | 0.00 | 51 | 912.5 |
| 20260508094717 | 62 | 173 | 7.0 | 0.0 | 0.24 | 1.11 | 0.24 | 56 | 912.7 |
| 20260508091717 | 59 | 135 | 9.0 | 0.0 | 0.00 | 1.11 | 0.00 | 61 | 913.0 |
| 20260508084717 | 56 | 175 | 9.0 | 0.0 | 0.00 | 1.11 | 0.00 | 67 | 913.2 |
| 20260508081717 | 54 | 151 | 13.0 | 0.0 | 0.00 | 1.11 | 0.00 | 69 | 913.2 |
| 20260508074717 | 53 | 159 | 16.0 | 0.0 | 0.00 | 1.11 | 0.00 | 71 | 913.3 |
| 20260508071717 | 51 | 179 | 12.0 | 0.0 | 0.00 | 1.11 | 0.00 | 74 | 913.2 |
| 20260508064717 | 49 | 124 | 17.0 | 0.0 | 0.00 | 1.11 | 0.00 | 78 | 913.2 |
| 20260508061717 | 47 | 135 | 14.0 | 0.0 | 0.00 | 1.11 | 0.00 | 82 | 912.8 |
| 20260508054717 | 46 | 112 | 6.0 | 0.0 | 0.00 | 1.11 | 0.00 | 83 | 912.9 |
| 20260508051717 | 45 | 139 | 9.0 | 0.0 | 0.00 | 1.11 | 0.00 | 84 | 912.9 |
| 20260508044717 | 44 | 139 | 3.0 | 0.0 | 0.00 | 1.11 | 0.00 | 85 | 913.0 |
| 20260508041717 | 44 | 86 | 6.0 | 0.0 | 0.00 | 1.11 | 0.00 | 85 | 912.8 |
| 20260508034717 | 44 | 0 | 0.0 | 0.0 | 0.00 | 1.11 | 0.00 | 84 | 912.6 |
| 20260508031717 | 45 | 128 | 6.0 | 0.0 | 0.00 | 1.11 | 0.00 | 83 | 912.5 |
| 20260508024717 | 45 | 182 | 5.0 | 0.0 | 0.00 | 1.11 | 0.00 | 84 | 912.5 |
| 20260508021717 | 46 | 148 | 3.0 | 0.0 | 0.00 | 1.11 | 0.00 | 83 | 912.6 |
| 20260508014717 | 46 | 132 | 9.0 | 0.0 | 0.00 | 1.11 | 0.00 | 84 | 912.8 |
| 20260508011717 | 46 | 165 | 9.0 | 0.0 | 0.00 | 1.11 | 0.00 | 83 | 912.7 |
| 20260508004717 | 47 | 0 | 0.0 | 0.0 | 0.00 | 1.11 | 0.00 | 83 | 912.9 |